createdAt,value
2019-06-07T00:02:00.718Z,6.28
2019-06-07T00:04:30.821Z,6.60
2019-06-07T00:07:01.020Z,6.17
2019-06-07T00:09:31.076Z,8.70
2019-06-07T00:12:01.209Z,7.15
2019-06-07T00:14:31.322Z,5.28
2019-06-07T00:17:01.496Z,4.92
2019-06-07T00:19:31.567Z,6.97
2019-06-07T00:22:29.829Z,9.23
2019-06-07T00:24:34.445Z,11.33
2019-06-07T00:27:04.595Z,7.20
2019-06-07T00:29:34.696Z,9.30
2019-06-07T00:32:04.833Z,8.90
2019-06-07T00:34:34.982Z,6.50
2019-06-07T00:37:05.081Z,7.30
2019-06-07T00:39:35.230Z,6.62
2019-06-07T00:42:05.330Z,5.30
2019-06-07T00:44:35.478Z,10.40
2019-06-07T00:47:05.585Z,7.40
2019-06-07T00:49:41.001Z,4.08
2019-06-07T00:52:07.453Z,8.10
2019-06-07T00:54:37.597Z,9.90
2019-06-07T00:57:07.709Z,6.33
2019-06-07T00:59:37.843Z,5.95
2019-06-07T01:02:07.956Z,8.50
2019-06-07T01:04:38.096Z,7.70
2019-06-07T01:07:09.221Z,7.78
2019-06-07T01:09:46.494Z,8.53
2019-06-07T01:12:19.493Z,7.67
2019-06-07T01:14:48.367Z,9.48
2019-06-07T01:17:41.432Z,6.50
2019-06-07T01:19:59.146Z,10.82
2019-06-07T01:22:29.594Z,6.05
2019-06-07T01:24:59.906Z,14.93
2019-06-07T01:27:30.013Z,8.43
2019-06-07T01:30:00.159Z,8.68
2019-06-07T01:32:31.717Z,9.90
2019-06-07T01:35:03.409Z,11.35
2019-06-07T01:37:33.617Z,9.28
2019-06-07T01:40:07.214Z,9.75
2019-06-07T01:42:37.314Z,12.85
2019-06-07T01:45:07.761Z,12.43
2019-06-07T01:47:37.872Z,8.70
2019-06-07T01:50:08.118Z,6.75
2019-06-07T01:52:39.225Z,5.08
2019-06-07T01:55:09.370Z,11.05
2019-06-07T01:57:47.911Z,8.23
2019-06-07T02:00:14.567Z,9.98
2019-06-07T02:02:44.542Z,11.90
2019-06-07T02:05:14.698Z,10.30
2019-06-07T02:07:44.802Z,13.83
2019-06-07T02:10:14.954Z,12.90
2019-06-07T02:12:45.069Z,14.53
2019-06-07T02:15:16.029Z,11.28
2019-06-07T02:17:46.137Z,12.68
2019-06-07T02:20:16.296Z,10.58
2019-06-07T02:22:46.398Z,10.35
2019-06-07T02:25:37.230Z,11.03
2019-06-07T02:27:48.318Z,9.40
2019-06-07T02:32:50.238Z,10.95
2019-06-07T02:35:23.454Z,9.08
2019-06-07T02:37:52.119Z,10.38
2019-06-07T02:40:24.109Z,10.00
2019-06-07T02:42:53.990Z,9.18
2019-06-07T02:45:24.893Z,8.63
2019-06-07T02:47:55.866Z,10.82
2019-06-07T02:50:28.322Z,16.60
2019-06-07T02:52:57.754Z,14.13
2019-06-07T02:55:33.621Z,11.30
2019-06-07T02:58:00.628Z,11.30
2019-06-07T03:01:00.626Z,13.62
2019-06-07T03:03:14.454Z,12.03
2019-06-07T03:05:44.658Z,12.40
2019-06-07T03:08:15.810Z,16.30
2019-06-07T03:10:48.277Z,9.50
2019-06-07T03:13:20.687Z,9.93
2019-06-07T03:15:53.471Z,17.05
2019-06-07T03:18:29.059Z,18.42
2019-06-07T03:21:05.242Z,12.05
2019-06-07T03:23:32.392Z,18.65
2019-06-07T03:26:04.725Z,13.43
2019-06-07T03:28:37.476Z,15.32
2019-06-07T03:31:07.019Z,14.68
2019-06-07T03:33:42.865Z,19.35
2019-06-07T03:36:23.449Z,20.17
2019-06-07T03:38:40.708Z,11.20
2019-06-07T03:41:10.806Z,17.85
2019-06-07T03:43:40.972Z,10.08
2019-06-07T03:46:11.073Z,11.28
2019-06-07T03:48:41.565Z,14.25
2019-06-07T03:51:24.169Z,15.88
2019-06-07T03:53:43.614Z,18.35
2019-06-07T03:56:15.670Z,12.07
2019-06-07T03:58:50.071Z,8.05
2019-06-07T04:01:17.742Z,24.15
2019-06-07T04:03:51.822Z,11.45
2019-06-07T04:06:19.630Z,13.83
2019-06-07T04:08:49.789Z,15.58
2019-06-07T04:11:19.901Z,9.38
2019-06-07T04:13:50.060Z,12.25
2019-06-07T04:16:20.172Z,13.60
2019-06-07T04:18:50.325Z,14.43
2019-06-07T04:21:21.468Z,13.68
2019-06-07T04:23:51.585Z,10.53
2019-06-07T04:26:21.734Z,13.50
2019-06-07T04:29:31.758Z,9.30
2019-06-07T04:31:24.610Z,14.20
2019-06-07T04:33:54.731Z,10.98
2019-06-07T04:36:44.309Z,11.93
2019-06-07T04:38:56.718Z,10.23
2019-06-07T04:41:26.869Z,11.33
2019-06-07T04:43:58.382Z,11.83
2019-06-07T04:46:28.922Z,9.78
2019-06-07T04:48:59.533Z,13.05
2019-06-07T04:51:30.509Z,12.45
2019-06-07T04:54:01.714Z,10.80
2019-06-07T04:56:33.796Z,11.05
2019-06-07T04:59:03.593Z,7.60
2019-06-07T05:01:34.887Z,13.40
2019-06-07T05:04:05.469Z,8.73
2019-06-07T05:06:37.594Z,9.73
2019-06-07T05:09:07.344Z,12.68
2019-06-07T05:11:39.422Z,10.68
2019-06-07T05:14:09.226Z,12.20
2019-06-07T05:16:43.721Z,11.53
2019-06-07T05:19:11.118Z,13.48
2019-06-07T05:22:01.437Z,16.27
2019-06-07T05:24:13.005Z,10.65
2019-06-07T05:26:43.154Z,10.78
2019-06-07T05:29:13.264Z,11.12
2019-06-07T05:31:45.495Z,13.10
2019-06-07T05:34:15.927Z,11.70
2019-06-07T05:36:46.132Z,12.37
2019-06-07T05:39:17.847Z,8.00
2019-06-07T05:41:47.958Z,11.30
2019-06-07T05:44:18.110Z,12.33
2019-06-07T05:46:48.221Z,10.58
2019-06-07T05:49:18.396Z,9.10
2019-06-07T05:51:48.473Z,14.28
2019-06-07T05:54:18.619Z,13.83
2019-06-07T05:56:48.730Z,11.00
2019-06-07T05:59:18.881Z,12.20
2019-06-07T06:02:00.169Z,15.98
2019-06-07T06:04:20.771Z,11.30
2019-06-07T06:06:50.884Z,12.45
2019-06-07T06:09:21.033Z,12.53
2019-06-07T06:12:01.789Z,13.60
2019-06-07T06:14:22.913Z,13.83
2019-06-07T06:16:53.025Z,10.55
2019-06-07T06:19:23.169Z,14.40
2019-06-07T06:21:53.281Z,15.60
2019-06-07T06:24:23.429Z,14.55
2019-06-07T06:27:00.230Z,10.13
2019-06-07T06:29:25.315Z,13.75
2019-06-07T06:32:40.476Z,11.83
2019-06-07T06:34:27.206Z,11.88
2019-06-07T06:36:58.319Z,11.30
2019-06-07T06:39:28.471Z,10.03
2019-06-07T06:42:03.728Z,11.08
2019-06-07T06:44:30.361Z,14.58
2019-06-07T06:47:01.504Z,9.00
2019-06-07T06:49:31.610Z,10.85
2019-06-07T06:52:01.762Z,11.90
2019-06-07T06:54:40.882Z,12.15
2019-06-07T06:57:19.248Z,11.08
2019-06-07T06:59:39.396Z,12.13
2019-06-07T07:02:08.262Z,7.78
2019-06-07T07:04:38.467Z,10.05
2019-06-07T07:07:08.714Z,8.48
2019-06-07T07:09:38.821Z,9.30
2019-06-07T07:12:12.557Z,10.32
2019-06-07T07:14:42.991Z,10.05
2019-06-07T07:17:12.469Z,10.43
2019-06-07T07:19:45.009Z,11.05
2019-06-07T07:22:14.350Z,9.03
2019-06-07T07:24:44.580Z,9.53
2019-06-07T07:27:14.696Z,10.98
2019-06-07T07:29:49.552Z,7.95
2019-06-07T07:32:16.573Z,8.23
2019-06-07T07:34:49.526Z,11.00
2019-06-07T07:37:18.486Z,6.78
2019-06-07T07:39:51.197Z,7.28
2019-06-07T07:42:21.762Z,8.43
2019-06-07T07:44:54.918Z,7.97
2019-06-07T07:47:23.918Z,6.45
2019-06-07T07:49:58.106Z,5.97
2019-06-07T07:52:25.786Z,9.00
2019-06-07T07:54:57.770Z,7.87
2019-06-07T07:57:27.667Z,9.75
2019-06-07T08:00:25.252Z,5.62
2019-06-07T08:02:29.525Z,6.35
2019-06-07T08:05:21.700Z,6.37
2019-06-07T08:07:32.433Z,6.47
2019-06-07T08:10:04.229Z,5.53
2019-06-07T08:12:55.673Z,6.67
2019-06-07T08:15:06.151Z,6.62
2019-06-07T08:17:36.277Z,7.10
2019-06-07T08:20:08.579Z,5.72
2019-06-07T08:22:38.725Z,7.20
2019-06-07T08:25:08.863Z,7.15
2019-06-07T08:27:38.969Z,7.28
2019-06-07T08:30:47.085Z,7.60
2019-06-07T08:32:45.561Z,9.55
2019-06-07T08:36:02.593Z,4.50
2019-06-07T08:40:19.254Z,5.70
2019-06-07T08:43:10.848Z,5.28
2019-06-07T08:45:21.101Z,7.85
2019-06-07T08:47:57.262Z,9.88
2019-06-07T08:50:23.075Z,4.22
2019-06-07T08:52:56.996Z,5.30
2019-06-07T08:55:24.937Z,5.33
2019-06-07T08:58:03.384Z,5.60
2019-06-07T09:00:45.365Z,6.65
2019-06-07T09:03:04.409Z,9.30
2019-06-07T09:05:30.338Z,6.00
2019-06-07T09:08:25.973Z,8.55
2019-06-07T09:10:32.720Z,5.78
2019-06-07T09:13:07.597Z,8.70
2019-06-07T09:15:34.675Z,6.80
2019-06-07T09:20:45.024Z,9.28
2019-06-07T09:23:17.369Z,5.85
2019-06-07T09:25:57.070Z,7.42
2019-06-07T09:28:20.343Z,6.47
2019-06-07T09:30:50.503Z,5.90
2019-06-07T09:33:20.609Z,5.28
2019-06-07T09:35:50.758Z,6.45
2019-06-07T09:38:26.058Z,8.00
2019-06-07T09:40:52.630Z,6.08
2019-06-07T09:45:56.656Z,5.62
2019-06-07T09:49:09.845Z,7.08
2019-06-07T09:51:02.102Z,8.20
2019-06-07T09:53:30.954Z,10.28
2019-06-07T09:56:05.722Z,7.67
2019-06-07T09:58:51.766Z,5.95
2019-06-07T10:01:12.248Z,6.87
2019-06-07T10:03:36.817Z,3.92
2019-06-07T10:06:09.811Z,8.38
2019-06-07T10:09:57.001Z,4.85
2019-06-07T10:11:10.417Z,8.70
2019-06-07T10:13:40.573Z,6.87
2019-06-07T10:16:10.672Z,6.35
2019-06-07T10:18:40.819Z,5.28
2019-06-07T10:21:15.192Z,5.00
2019-06-07T10:23:42.691Z,5.83
2019-06-07T10:26:12.802Z,7.62
2019-06-07T10:28:42.950Z,4.35
2019-06-07T10:31:13.089Z,4.42
2019-06-07T10:33:43.229Z,5.20
2019-06-07T10:36:13.335Z,6.37
2019-06-07T10:38:43.478Z,7.62
2019-06-07T10:41:13.797Z,5.00
2019-06-07T10:43:43.943Z,6.80
2019-06-07T10:46:14.051Z,6.15
2019-06-07T10:48:44.203Z,6.20
2019-06-07T10:51:14.914Z,5.12
2019-06-07T10:53:45.161Z,5.62
2019-06-07T10:56:15.267Z,6.28
2019-06-07T10:58:45.418Z,4.62
2019-06-07T11:01:15.527Z,4.72
2019-06-07T11:03:45.688Z,3.95
2019-06-07T11:06:15.798Z,7.65
2019-06-07T11:08:45.941Z,5.28
2019-06-07T11:11:16.085Z,7.80
2019-06-07T11:13:46.190Z,4.12
2019-06-07T11:16:16.335Z,5.12
2019-06-07T11:18:46.442Z,3.92
2019-06-07T11:21:16.591Z,5.95
2019-06-07T11:23:46.699Z,6.72
2019-06-07T11:26:16.841Z,4.28
2019-06-07T11:28:46.956Z,5.95
2019-06-07T11:31:17.094Z,7.40
2019-06-07T11:33:47.211Z,6.03
2019-06-07T11:36:17.359Z,6.85
2019-06-07T11:38:48.685Z,3.62
2019-06-07T11:41:18.847Z,3.58
2019-06-07T11:43:48.965Z,2.92
2019-06-07T11:46:19.099Z,7.35
2019-06-07T11:48:49.210Z,2.95
2019-06-07T11:51:19.358Z,5.55
2019-06-07T11:53:49.501Z,4.25
2019-06-07T11:56:19.617Z,6.67
2019-06-07T11:58:49.762Z,4.92
2019-06-07T12:01:19.874Z,3.70
2019-06-07T12:03:50.010Z,5.12
2019-06-07T12:06:20.112Z,6.60
2019-06-07T12:08:50.262Z,4.67
2019-06-07T12:11:20.371Z,2.85
2019-06-07T12:13:50.515Z,4.87
2019-06-07T12:16:20.619Z,5.92
2019-06-07T12:18:50.766Z,2.98
2019-06-07T12:21:20.870Z,4.72
2019-06-07T12:23:51.013Z,5.37
2019-06-07T12:26:21.125Z,5.15
2019-06-07T12:28:51.286Z,4.55
2019-06-07T12:31:21.401Z,4.00
2019-06-07T12:33:51.742Z,6.80
2019-06-07T12:36:22.101Z,5.58
2019-06-07T12:38:53.197Z,5.78
2019-06-07T12:41:23.337Z,4.47
2019-06-07T12:43:53.447Z,4.40
2019-06-07T12:46:28.073Z,3.58
2019-06-07T12:48:56.426Z,8.05
2019-06-07T12:51:26.566Z,3.52
2019-06-07T12:53:57.774Z,5.20
2019-06-07T12:56:27.922Z,4.75
2019-06-07T12:58:58.125Z,6.37
2019-06-07T13:01:28.275Z,2.80
2019-06-07T13:03:58.387Z,7.50
2019-06-07T13:06:28.538Z,3.25
2019-06-07T13:08:59.647Z,6.15
2019-06-07T13:11:31.684Z,3.72
2019-06-07T13:14:01.510Z,3.37
2019-06-07T13:16:31.658Z,4.03
2019-06-07T13:19:01.767Z,3.80
2019-06-07T13:21:31.909Z,4.95
2019-06-07T13:24:02.018Z,3.52
2019-06-07T13:26:32.162Z,4.67
2019-06-07T13:29:02.273Z,4.75
2019-06-07T13:31:32.422Z,4.83
2019-06-07T13:34:02.528Z,3.55
2019-06-07T13:36:32.667Z,6.40
2019-06-07T13:39:02.773Z,5.08
2019-06-07T13:41:42.511Z,4.87
2019-06-07T13:44:04.846Z,3.80
2019-06-07T13:46:35.020Z,3.77
2019-06-07T13:49:05.201Z,4.58
2019-06-07T13:51:35.353Z,3.83
2019-06-07T13:54:05.500Z,3.58
2019-06-07T13:56:35.605Z,7.47
2019-06-07T13:59:05.767Z,3.95
2019-06-07T14:01:35.857Z,3.17
2019-06-07T14:04:05.996Z,7.45
2019-06-07T14:06:36.123Z,5.65
2019-06-07T14:09:07.149Z,4.28
2019-06-07T14:11:50.169Z,3.58
2019-06-07T14:14:09.025Z,7.40
2019-06-07T14:16:39.129Z,6.67
2019-06-07T14:19:09.276Z,3.77
2019-06-07T14:21:39.379Z,6.80
2019-06-07T14:24:09.526Z,5.80
2019-06-07T14:26:41.202Z,3.77
2019-06-07T14:29:11.354Z,6.85
2019-06-07T14:31:41.454Z,4.80
2019-06-07T14:34:11.618Z,3.80
2019-06-07T14:36:41.714Z,5.00
2019-06-07T14:39:11.861Z,2.77
2019-06-07T14:41:41.966Z,4.58
2019-06-07T14:44:12.119Z,2.75
2019-06-07T14:46:42.231Z,3.92
2019-06-07T14:49:12.379Z,4.25
2019-06-07T14:51:42.484Z,3.15
2019-06-07T14:54:12.639Z,4.83
2019-06-07T14:56:42.757Z,3.08
2019-06-07T14:59:14.474Z,2.85
2019-06-07T15:01:45.586Z,3.50
2019-06-07T15:04:15.730Z,3.42
2019-06-07T15:06:46.750Z,3.12
2019-06-07T15:09:16.858Z,5.53
2019-06-07T15:11:47.004Z,5.90
2019-06-07T15:14:17.113Z,4.80
2019-06-07T15:16:47.257Z,4.62
2019-06-07T15:19:17.373Z,5.58
2019-06-07T15:21:47.509Z,5.00
2019-06-07T15:24:17.615Z,3.62
2019-06-07T15:26:47.788Z,5.85
2019-06-07T15:29:17.893Z,3.35
2019-06-07T15:31:48.034Z,6.45
2019-06-07T15:34:18.137Z,2.87
2019-06-07T15:36:48.288Z,7.40
2019-06-07T15:39:18.388Z,2.60
2019-06-07T15:41:48.529Z,5.30
2019-06-07T15:44:18.717Z,3.67
2019-06-07T15:46:48.782Z,5.78
2019-06-07T15:49:18.925Z,3.87
2019-06-07T15:51:49.029Z,5.33
2019-06-07T15:54:19.170Z,5.62
2019-06-07T15:56:49.275Z,6.90
2019-06-07T15:59:19.452Z,5.97
2019-06-07T16:01:49.549Z,6.85
2019-06-07T16:04:19.700Z,3.47
2019-06-07T16:06:49.808Z,7.05
2019-06-07T16:09:19.953Z,4.50
2019-06-07T16:11:50.063Z,4.37
2019-06-07T16:14:20.210Z,5.33
2019-06-07T16:16:50.310Z,4.00
2019-06-07T16:19:20.457Z,5.58
2019-06-07T16:21:50.564Z,6.87
2019-06-07T16:24:20.709Z,4.83
2019-06-07T16:26:50.818Z,8.40
2019-06-07T16:29:20.967Z,5.40
2019-06-07T16:31:51.106Z,5.20
2019-06-07T16:34:21.211Z,5.53
2019-06-07T16:36:51.382Z,3.35
2019-06-07T16:39:21.486Z,7.80
2019-06-07T16:41:51.632Z,4.30
2019-06-07T16:44:21.737Z,6.42
2019-06-07T16:46:51.873Z,5.75
2019-06-07T16:49:21.983Z,9.13
2019-06-07T16:51:52.136Z,3.42
2019-06-07T16:54:22.242Z,3.90
2019-06-07T16:56:53.385Z,3.40
2019-06-07T16:59:23.488Z,5.60
2019-06-07T17:01:53.634Z,4.60
2019-06-07T17:04:23.741Z,4.50
2019-06-07T17:06:53.885Z,4.17
2019-06-07T17:09:23.985Z,7.17
2019-06-07T17:11:54.130Z,3.80
2019-06-07T17:14:24.236Z,8.35
2019-06-07T17:16:54.397Z,4.75
2019-06-07T17:19:24.493Z,3.70
2019-06-07T17:21:54.630Z,7.65
2019-06-07T17:24:26.739Z,4.53
2019-06-07T17:26:56.514Z,5.25
2019-06-07T17:29:26.670Z,3.50
2019-06-07T17:31:56.775Z,4.65
2019-06-07T17:34:26.926Z,9.10
2019-06-07T17:36:57.034Z,5.67
2019-06-07T17:39:27.179Z,4.37
2019-06-07T17:42:02.027Z,4.80
2019-06-07T17:44:30.048Z,6.42
2019-06-07T17:47:00.156Z,3.60
2019-06-07T17:49:30.294Z,3.42
2019-06-07T17:52:00.402Z,7.80
2019-06-07T17:54:30.546Z,4.35
2019-06-07T17:57:00.656Z,4.95
2019-06-07T17:59:30.799Z,4.92
2019-06-07T18:02:14.159Z,4.03
2019-06-07T18:04:32.665Z,5.60
2019-06-07T18:07:02.789Z,5.58
2019-06-07T18:09:32.925Z,5.53
2019-06-07T18:12:03.032Z,5.50
2019-06-07T18:14:33.182Z,4.42
2019-06-07T18:17:03.293Z,4.90
2019-06-07T18:19:33.434Z,7.17
2019-06-07T18:22:03.560Z,6.80
2019-06-07T18:24:33.698Z,3.90
2019-06-07T18:27:06.965Z,9.73
2019-06-07T18:29:35.563Z,5.35
2019-06-07T18:32:05.706Z,6.80
2019-06-07T18:34:35.814Z,7.15
2019-06-07T18:37:05.964Z,3.55
2019-06-07T18:39:36.070Z,3.30
2019-06-07T18:42:06.222Z,6.95
2019-06-07T18:44:36.321Z,5.12
2019-06-07T18:47:06.470Z,7.47
2019-06-07T18:49:36.577Z,8.15
2019-06-07T18:52:20.279Z,8.63
2019-06-07T18:54:50.923Z,5.80
2019-06-07T18:57:21.129Z,4.67
2019-06-07T18:59:52.302Z,6.05
2019-06-07T19:02:22.578Z,7.12
2019-06-07T19:04:54.058Z,4.67
2019-06-07T19:07:24.431Z,6.85
2019-06-07T19:09:54.970Z,6.87
2019-06-07T19:12:25.187Z,7.50
2019-06-07T19:14:55.601Z,5.95
2019-06-07T19:17:25.832Z,7.85
2019-06-07T19:19:56.172Z,8.78
2019-06-07T19:22:26.481Z,8.88
2019-06-07T19:24:56.910Z,3.52
2019-06-07T19:27:27.446Z,4.83
2019-06-07T19:29:59.179Z,6.95
2019-06-07T19:32:29.340Z,6.05
2019-06-07T19:34:59.458Z,5.90
2019-06-07T19:37:29.586Z,8.68
2019-06-07T19:40:00.136Z,7.55
2019-06-07T19:42:30.448Z,8.10
2019-06-07T19:45:24.495Z,7.10
2019-06-07T19:47:32.350Z,7.55
2019-06-07T19:50:04.301Z,11.55
2019-06-07T19:52:34.416Z,9.53
2019-06-07T19:55:09.178Z,11.25
2019-06-07T19:57:37.816Z,10.48
2019-06-07T20:00:13.988Z,7.92
2019-06-07T20:02:39.703Z,9.03
2019-06-07T20:05:13.993Z,6.47
2019-06-07T20:07:44.138Z,7.15
2019-06-07T20:10:15.229Z,6.87
2019-06-07T20:12:45.343Z,6.10
2019-06-07T20:15:30.821Z,7.17
2019-06-07T20:17:47.219Z,6.78
2019-06-07T20:20:17.362Z,6.60
2019-06-07T20:22:47.462Z,7.53
2019-06-07T20:25:18.710Z,8.48
2019-06-07T20:27:48.816Z,8.15
2019-06-07T20:30:18.966Z,10.00
2019-06-07T20:32:49.081Z,12.28
2019-06-07T20:35:19.237Z,6.80
2019-06-07T20:37:49.352Z,6.75
2019-06-07T20:40:24.634Z,9.03
2019-06-07T20:42:52.022Z,10.48
2019-06-07T20:45:33.296Z,9.55
2019-06-07T20:47:53.895Z,8.90
2019-06-07T20:50:24.041Z,7.97
2019-06-07T20:52:54.160Z,7.58
2019-06-07T20:55:24.293Z,9.33
2019-06-07T20:57:54.397Z,7.62
2019-06-07T21:00:24.552Z,8.78
2019-06-07T21:02:54.681Z,8.90
2019-06-07T21:05:24.790Z,27.20
2019-06-07T21:07:54.938Z,19.62
2019-06-07T21:10:25.049Z,27.00
2019-06-07T21:12:56.298Z,18.10
2019-06-07T21:15:26.412Z,32.53
2019-06-07T21:17:56.561Z,11.53
2019-06-07T21:20:26.669Z,14.03
2019-06-07T21:22:56.825Z,11.08
2019-06-07T21:25:26.935Z,17.37
2019-06-07T21:27:57.089Z,10.88
2019-06-07T21:30:27.212Z,12.95
2019-06-07T21:32:57.360Z,8.38
2019-06-07T21:35:27.460Z,9.58
2019-06-07T21:37:57.606Z,7.53
2019-06-07T21:40:27.722Z,12.82
2019-06-07T21:42:57.866Z,8.25
2019-06-07T21:45:27.982Z,15.20
2019-06-07T21:47:58.136Z,10.10
2019-06-07T21:50:28.291Z,11.85
2019-06-07T21:52:58.434Z,11.55
2019-06-07T21:55:28.543Z,9.75
2019-06-07T21:57:58.697Z,5.80
2019-06-07T22:00:57.607Z,3.08
2019-06-07T22:03:27.740Z,7.37
2019-06-07T22:05:57.854Z,3.60
2019-06-07T22:08:28.001Z,4.10
2019-06-07T22:10:58.120Z,6.05
2019-06-07T22:13:28.254Z,6.20
2019-06-07T22:15:58.362Z,13.32
2019-06-07T22:18:28.516Z,4.53
2019-06-07T22:20:58.622Z,7.67
2019-06-07T22:23:28.765Z,4.50
2019-06-07T22:25:58.872Z,5.28
2019-06-07T22:28:29.006Z,7.87
2019-06-07T22:30:59.126Z,4.85
2019-06-07T22:33:29.262Z,6.12
2019-06-07T22:35:59.372Z,3.50
2019-06-07T22:38:29.512Z,2.62
2019-06-07T22:40:59.618Z,2.20
2019-06-07T22:43:29.756Z,6.92
2019-06-07T22:45:59.858Z,2.30
2019-06-07T22:48:30.011Z,4.90
2019-06-07T22:51:01.766Z,2.47
2019-06-07T22:53:31.876Z,2.85
2019-06-07T22:56:03.594Z,4.12
2019-06-07T22:58:33.733Z,8.63
2019-06-07T23:01:03.841Z,6.45
2019-06-07T23:03:33.968Z,4.05
2019-06-07T23:06:04.126Z,2.80
2019-06-07T23:08:34.237Z,3.85
2019-06-07T23:11:04.374Z,3.58
2019-06-07T23:13:34.476Z,3.85
2019-06-07T23:16:04.927Z,3.50
2019-06-07T23:18:35.033Z,4.60
2019-06-07T23:21:05.188Z,2.35
2019-06-07T23:23:35.285Z,1.55
2019-06-07T23:26:05.433Z,8.70
2019-06-07T23:28:35.542Z,3.15
2019-06-07T23:31:05.681Z,9.73
2019-06-07T23:33:35.790Z,5.97
2019-06-07T23:36:05.937Z,3.72
2019-06-07T23:38:36.043Z,2.45
2019-06-07T23:41:06.195Z,3.85
2019-06-07T23:43:36.297Z,5.87
2019-06-07T23:46:06.403Z,6.53
2019-06-07T23:48:36.546Z,3.60
2019-06-07T23:51:06.662Z,3.00
2019-06-07T23:53:36.810Z,4.53
2019-06-07T23:56:06.911Z,5.85
2019-06-07T23:58:37.056Z,6.17
